sensor_id;sensor_type;location;lat;lon;timestamp;temperature;humidity
51878;SHT31;37911;51.526;11.536;2023-06-04T00:02:46;10.34;63.55
51878;SHT31;37911;51.526;11.536;2023-06-04T00:05:50;10.32;63.47
51878;SHT31;37911;51.526;11.536;2023-06-04T00:08:56;10.30;63.60
51878;SHT31;37911;51.526;11.536;2023-06-04T00:12:00;10.27;63.55
51878;SHT31;37911;51.526;11.536;2023-06-04T00:15:05;10.27;63.66
51878;SHT31;37911;51.526;11.536;2023-06-04T00:18:09;10.23;63.78
51878;SHT31;37911;51.526;11.536;2023-06-04T00:21:14;10.20;63.89
51878;SHT31;37911;51.526;11.536;2023-06-04T00:24:20;10.20;63.70
51878;SHT31;37911;51.526;11.536;2023-06-04T00:27:24;10.18;63.65
51878;SHT31;37911;51.526;11.536;2023-06-04T00:30:27;10.21;63.26
51878;SHT31;37911;51.526;11.536;2023-06-04T00:33:31;10.24;63.01
51878;SHT31;37911;51.526;11.536;2023-06-04T00:36:36;10.18;63.51
51878;SHT31;37911;51.526;11.536;2023-06-04T00:39:42;10.12;63.52
51878;SHT31;37911;51.526;11.536;2023-06-04T00:42:45;10.00;63.98
51878;SHT31;37911;51.526;11.536;2023-06-04T00:45:50;9.99;64.09
51878;SHT31;37911;51.526;11.536;2023-06-04T00:48:54;9.90;64.36
51878;SHT31;37911;51.526;11.536;2023-06-04T00:51:58;9.80;64.35
51878;SHT31;37911;51.526;11.536;2023-06-04T00:55:05;9.72;64.71
51878;SHT31;37911;51.526;11.536;2023-06-04T00:58:09;9.69;64.96
51878;SHT31;37911;51.526;11.536;2023-06-04T01:01:17;9.79;64.23
51878;SHT31;37911;51.526;11.536;2023-06-04T01:04:27;9.72;64.50
51878;SHT31;37911;51.526;11.536;2023-06-04T01:07:32;9.70;64.41
51878;SHT31;37911;51.526;11.536;2023-06-04T01:10:50;9.56;64.89
51878;SHT31;37911;51.526;11.536;2023-06-04T01:13:54;9.53;64.94
51878;SHT31;37911;51.526;11.536;2023-06-04T01:16:59;9.55;64.87
51878;SHT31;37911;51.526;11.536;2023-06-04T01:20:27;9.42;65.53
51878;SHT31;37911;51.526;11.536;2023-06-04T01:23:40;9.38;65.44
51878;SHT31;37911;51.526;11.536;2023-06-04T01:26:50;9.39;65.41
51878;SHT31;37911;51.526;11.536;2023-06-04T01:29:56;9.24;65.83
51878;SHT31;37911;51.526;11.536;2023-06-04T01:33:02;9.36;65.50
51878;SHT31;37911;51.526;11.536;2023-06-04T01:36:06;9.35;65.28
51878;SHT31;37911;51.526;11.536;2023-06-04T01:39:12;9.28;65.52
51878;SHT31;37911;51.526;11.536;2023-06-04T01:42:19;9.19;65.71
51878;SHT31;37911;51.526;11.536;2023-06-04T01:45:23;9.24;65.50
51878;SHT31;37911;51.526;11.536;2023-06-04T01:48:28;9.22;65.51
51878;SHT31;37911;51.526;11.536;2023-06-04T01:51:32;9.07;65.87
51878;SHT31;37911;51.526;11.536;2023-06-04T01:54:37;8.97;66.38
51878;SHT31;37911;51.526;11.536;2023-06-04T01:57:44;9.01;66.27
51878;SHT31;37911;51.526;11.536;2023-06-04T02:00:48;9.03;66.08
51878;SHT31;37911;51.526;11.536;2023-06-04T02:03:53;8.94;66.34
51878;SHT31;37911;51.526;11.536;2023-06-04T02:06:57;9.04;66.09
51878;SHT31;37911;51.526;11.536;2023-06-04T02:10:00;8.96;66.35
51878;SHT31;37911;51.526;11.536;2023-06-04T02:13:07;8.94;66.39
51878;SHT31;37911;51.526;11.536;2023-06-04T02:16:10;8.84;66.43
51878;SHT31;37911;51.526;11.536;2023-06-04T02:19:15;8.74;66.58
51878;SHT31;37911;51.526;11.536;2023-06-04T02:22:19;8.74;66.57
51878;SHT31;37911;51.526;11.536;2023-06-04T02:25:23;8.78;66.44
51878;SHT31;37911;51.526;11.536;2023-06-04T02:28:29;8.74;66.56
51878;SHT31;37911;51.526;11.536;2023-06-04T02:31:33;8.66;66.91
51878;SHT31;37911;51.526;11.536;2023-06-04T02:34:38;8.63;67.00
51878;SHT31;37911;51.526;11.536;2023-06-04T02:37:42;8.64;66.75
51878;SHT31;37911;51.526;11.536;2023-06-04T02:40:46;8.61;66.72
51878;SHT31;37911;51.526;11.536;2023-06-04T02:43:52;8.50;67.05
51878;SHT31;37911;51.526;11.536;2023-06-04T02:46:55;8.57;66.94
51878;SHT31;37911;51.526;11.536;2023-06-04T02:49:59;8.50;67.19
51878;SHT31;37911;51.526;11.536;2023-06-04T02:53:04;8.47;67.15
51878;SHT31;37911;51.526;11.536;2023-06-04T02:56:07;8.54;67.06
51878;SHT31;37911;51.526;11.536;2023-06-04T02:59:15;8.52;67.03
51878;SHT31;37911;51.526;11.536;2023-06-04T03:02:18;8.47;67.07
51878;SHT31;37911;51.526;11.536;2023-06-04T03:05:23;8.54;66.69
51878;SHT31;37911;51.526;11.536;2023-06-04T03:08:27;8.49;66.91
51878;SHT31;37911;51.526;11.536;2023-06-04T03:11:31;8.44;67.16
51878;SHT31;37911;51.526;11.536;2023-06-04T03:14:38;8.34;67.24
51878;SHT31;37911;51.526;11.536;2023-06-04T03:17:42;8.34;67.44
51878;SHT31;37911;51.526;11.536;2023-06-04T03:20:45;8.21;67.77
51878;SHT31;37911;51.526;11.536;2023-06-04T03:23:49;8.21;67.72
51878;SHT31;37911;51.526;11.536;2023-06-04T03:26:53;8.21;67.63
51878;SHT31;37911;51.526;11.536;2023-06-04T03:29:59;8.14;67.93
51878;SHT31;37911;51.526;11.536;2023-06-04T03:33:13;8.19;67.84
51878;SHT31;37911;51.526;11.536;2023-06-04T03:36:16;8.23;67.74
51878;SHT31;37911;51.526;11.536;2023-06-04T03:39:20;8.13;68.11
51878;SHT31;37911;51.526;11.536;2023-06-04T03:42:24;8.28;67.70
51878;SHT31;37911;51.526;11.536;2023-06-04T03:45:31;8.37;67.32
51878;SHT31;37911;51.526;11.536;2023-06-04T03:48:35;8.42;67.39
51878;SHT31;37911;51.526;11.536;2023-06-04T03:51:40;8.40;67.57
51878;SHT31;37911;51.526;11.536;2023-06-04T03:54:44;8.40;67.68
51878;SHT31;37911;51.526;11.536;2023-06-04T03:57:48;8.39;67.71
51878;SHT31;37911;51.526;11.536;2023-06-04T04:00:56;8.42;67.35
51878;SHT31;37911;51.526;11.536;2023-06-04T04:04:00;8.50;67.38
51878;SHT31;37911;51.526;11.536;2023-06-04T04:07:03;8.49;67.65
51878;SHT31;37911;51.526;11.536;2023-06-04T04:10:07;8.49;67.77
51878;SHT31;37911;51.526;11.536;2023-06-04T04:13:11;8.54;67.66
51878;SHT31;37911;51.526;11.536;2023-06-04T04:16:18;8.59;67.81
51878;SHT31;37911;51.526;11.536;2023-06-04T04:19:22;8.73;67.32
51878;SHT31;37911;51.526;11.536;2023-06-04T04:22:26;8.85;67.24
51878;SHT31;37911;51.526;11.536;2023-06-04T04:25:30;8.85;67.15
51878;SHT31;37911;51.526;11.536;2023-06-04T04:28:37;8.92;67.01
51878;SHT31;37911;51.526;11.536;2023-06-04T04:31:44;9.03;67.03
51878;SHT31;37911;51.526;11.536;2023-06-04T04:34:53;9.19;66.86
51878;SHT31;37911;51.526;11.536;2023-06-04T04:38:04;9.25;66.68
51878;SHT31;37911;51.526;11.536;2023-06-04T04:41:15;9.43;66.55
51878;SHT31;37911;51.526;11.536;2023-06-04T04:44:19;9.56;66.30
51878;SHT31;37911;51.526;11.536;2023-06-04T04:47:25;9.72;66.02
51878;SHT31;37911;51.526;11.536;2023-06-04T04:50:29;9.86;66.03
51878;SHT31;37911;51.526;11.536;2023-06-04T04:53:34;9.97;65.75
51878;SHT31;37911;51.526;11.536;2023-06-04T04:56:39;10.14;65.53
51878;SHT31;37911;51.526;11.536;2023-06-04T04:59:43;10.30;64.81
51878;SHT31;37911;51.526;11.536;2023-06-04T05:02:49;10.44;64.40
51878;SHT31;37911;51.526;11.536;2023-06-04T05:05:53;10.51;64.34
51878;SHT31;37911;51.526;11.536;2023-06-04T05:08:57;10.67;64.27
51878;SHT31;37911;51.526;11.536;2023-06-04T05:12:01;10.85;64.02
51878;SHT31;37911;51.526;11.536;2023-06-04T05:15:07;11.05;63.54
51878;SHT31;37911;51.526;11.536;2023-06-04T05:18:16;11.22;63.48
51878;SHT31;37911;51.526;11.536;2023-06-04T05:21:21;11.44;63.11
51878;SHT31;37911;51.526;11.536;2023-06-04T05:24:31;11.70;62.84
51878;SHT31;37911;51.526;11.536;2023-06-04T05:27:39;11.90;62.40
51878;SHT31;37911;51.526;11.536;2023-06-04T05:30:45;12.14;62.00
51878;SHT31;37911;51.526;11.536;2023-06-04T05:33:52;12.42;61.51
51878;SHT31;37911;51.526;11.536;2023-06-04T05:36:57;12.72;60.12
51878;SHT31;37911;51.526;11.536;2023-06-04T05:40:03;13.09;56.54
51878;SHT31;37911;51.526;11.536;2023-06-04T05:43:09;13.56;56.26
51878;SHT31;37911;51.526;11.536;2023-06-04T05:46:13;14.04;53.38
51878;SHT31;37911;51.526;11.536;2023-06-04T05:49:20;14.54;50.42
51878;SHT31;37911;51.526;11.536;2023-06-04T05:52:26;14.92;49.04
51878;SHT31;37911;51.526;11.536;2023-06-04T05:55:30;15.22;48.41
51878;SHT31;37911;51.526;11.536;2023-06-04T05:58:34;15.58;48.47
51878;SHT31;37911;51.526;11.536;2023-06-04T06:01:39;15.94;48.00
51878;SHT31;37911;51.526;11.536;2023-06-04T06:04:46;16.18;47.55
51878;SHT31;37911;51.526;11.536;2023-06-04T06:07:50;16.42;45.15
51878;SHT31;37911;51.526;11.536;2023-06-04T06:10:54;16.80;45.94
51878;SHT31;37911;51.526;11.536;2023-06-04T06:13:57;16.99;42.98
51878;SHT31;37911;51.526;11.536;2023-06-04T06:17:02;17.32;42.78
51878;SHT31;37911;51.526;11.536;2023-06-04T06:20:11;17.54;43.68
51878;SHT31;37911;51.526;11.536;2023-06-04T06:23:18;17.85;43.48
51878;SHT31;37911;51.526;11.536;2023-06-04T06:26:25;18.22;40.67
51878;SHT31;37911;51.526;11.536;2023-06-04T06:29:32;18.61;38.30
51878;SHT31;37911;51.526;11.536;2023-06-04T06:32:37;18.52;35.86
51878;SHT31;37911;51.526;11.536;2023-06-04T06:35:43;18.80;36.66
51878;SHT31;37911;51.526;11.536;2023-06-04T06:38:47;19.21;36.31
51878;SHT31;37911;51.526;11.536;2023-06-04T06:41:51;19.34;35.18
51878;SHT31;37911;51.526;11.536;2023-06-04T06:44:59;19.44;34.97
51878;SHT31;37911;51.526;11.536;2023-06-04T06:48:03;19.87;35.51
51878;SHT31;37911;51.526;11.536;2023-06-04T06:51:10;20.14;33.75
51878;SHT31;37911;51.526;11.536;2023-06-04T06:54:14;20.33;32.62
51878;SHT31;37911;51.526;11.536;2023-06-04T06:57:22;20.48;34.36
51878;SHT31;37911;51.526;11.536;2023-06-04T07:00:26;20.83;33.52
51878;SHT31;37911;51.526;11.536;2023-06-04T07:03:29;21.21;32.78
51878;SHT31;37911;51.526;11.536;2023-06-04T07:06:36;21.21;33.39
51878;SHT31;37911;51.526;11.536;2023-06-04T07:09:40;21.35;32.39
51878;SHT31;37911;51.526;11.536;2023-06-04T07:12:44;21.58;32.60
51878;SHT31;37911;51.526;11.536;2023-06-04T07:15:47;21.56;33.50
51878;SHT31;37911;51.526;11.536;2023-06-04T07:18:51;21.96;33.38
51878;SHT31;37911;51.526;11.536;2023-06-04T07:21:57;22.34;32.60
51878;SHT31;37911;51.526;11.536;2023-06-04T07:25:01;22.31;30.97
51878;SHT31;37911;51.526;11.536;2023-06-04T07:28:05;22.45;32.10
51878;SHT31;37911;51.526;11.536;2023-06-04T07:31:08;22.55;31.06
51878;SHT31;37911;51.526;11.536;2023-06-04T07:34:14;22.92;30.68
51878;SHT31;37911;51.526;11.536;2023-06-04T07:37:21;22.75;30.44
51878;SHT31;37911;51.526;11.536;2023-06-04T07:40:26;22.98;29.90
51878;SHT31;37911;51.526;11.536;2023-06-04T07:43:29;23.41;29.60
51878;SHT31;37911;51.526;11.536;2023-06-04T07:46:33;23.55;29.87
51878;SHT31;37911;51.526;11.536;2023-06-04T07:49:37;24.16;28.77
51878;SHT31;37911;51.526;11.536;2023-06-04T07:52:43;24.27;29.89
51878;SHT31;37911;51.526;11.536;2023-06-04T07:55:47;23.92;29.20
51878;SHT31;37911;51.526;11.536;2023-06-04T07:58:50;23.97;29.37
51878;SHT31;37911;51.526;11.536;2023-06-04T08:01:54;24.30;30.07
51878;SHT31;37911;51.526;11.536;2023-06-04T08:04:58;24.44;28.23
51878;SHT31;37911;51.526;11.536;2023-06-04T08:08:05;24.75;27.98
51878;SHT31;37911;51.526;11.536;2023-06-04T08:11:09;25.05;27.04
51878;SHT31;37911;51.526;11.536;2023-06-04T08:14:13;24.75;25.50
51878;SHT31;37911;51.526;11.536;2023-06-04T08:17:16;24.40;24.71
51878;SHT31;37911;51.526;11.536;2023-06-04T08:20:20;24.48;25.91
51878;SHT31;37911;51.526;11.536;2023-06-04T08:23:30;24.55;25.61
51878;SHT31;37911;51.526;11.536;2023-06-04T08:26:34;24.86;25.00
51878;SHT31;37911;51.526;11.536;2023-06-04T08:29:37;25.29;25.77
51878;SHT31;37911;51.526;11.536;2023-06-04T08:32:41;25.01;26.12
51878;SHT31;37911;51.526;11.536;2023-06-04T08:35:45;25.39;26.33
51878;SHT31;37911;51.526;11.536;2023-06-04T08:38:52;25.51;25.33
51878;SHT31;37911;51.526;11.536;2023-06-04T08:41:59;25.04;23.66
51878;SHT31;37911;51.526;11.536;2023-06-04T08:45:05;25.51;24.28
51878;SHT31;37911;51.526;11.536;2023-06-04T08:48:13;24.35;24.76
51878;SHT31;37911;51.526;11.536;2023-06-04T08:51:17;24.81;24.57
51878;SHT31;37911;51.526;11.536;2023-06-04T08:54:24;25.02;25.59
51878;SHT31;37911;51.526;11.536;2023-06-04T08:57:30;25.40;24.32
51878;SHT31;37911;51.526;11.536;2023-06-04T09:00:34;25.09;24.31
51878;SHT31;37911;51.526;11.536;2023-06-04T09:03:38;25.26;24.89
51878;SHT31;37911;51.526;11.536;2023-06-04T09:06:42;24.84;24.27
51878;SHT31;37911;51.526;11.536;2023-06-04T09:09:50;25.50;24.35
51878;SHT31;37911;51.526;11.536;2023-06-04T09:12:54;26.11;24.27
51878;SHT31;37911;51.526;11.536;2023-06-04T09:16:01;26.07;24.21
51878;SHT31;37911;51.526;11.536;2023-06-04T09:19:04;26.61;23.86
51878;SHT31;37911;51.526;11.536;2023-06-04T09:22:08;26.49;23.79
51878;SHT31;37911;51.526;11.536;2023-06-04T09:25:22;26.48;23.46
51878;SHT31;37911;51.526;11.536;2023-06-04T09:28:29;26.34;22.83
51878;SHT31;37911;51.526;11.536;2023-06-04T09:31:34;26.28;23.36
51878;SHT31;37911;51.526;11.536;2023-06-04T09:34:40;26.67;23.79
51878;SHT31;37911;51.526;11.536;2023-06-04T09:37:52;27.07;22.60
51878;SHT31;37911;51.526;11.536;2023-06-04T09:41:02;26.78;22.10
51878;SHT31;37911;51.526;11.536;2023-06-04T09:44:07;26.81;21.96
51878;SHT31;37911;51.526;11.536;2023-06-04T09:47:11;26.59;22.40
51878;SHT31;37911;51.526;11.536;2023-06-04T09:50:25;26.92;21.95
51878;SHT31;37911;51.526;11.536;2023-06-04T09:53:28;27.30;22.35
51878;SHT31;37911;51.526;11.536;2023-06-04T09:56:41;26.68;22.06
51878;SHT31;37911;51.526;11.536;2023-06-04T09:59:46;26.67;22.37
51878;SHT31;37911;51.526;11.536;2023-06-04T10:02:55;27.40;23.85
51878;SHT31;37911;51.526;11.536;2023-06-04T10:06:01;27.60;22.21
51878;SHT31;37911;51.526;11.536;2023-06-04T10:09:07;27.76;21.69
51878;SHT31;37911;51.526;11.536;2023-06-04T10:12:14;27.16;21.52
51878;SHT31;37911;51.526;11.536;2023-06-04T10:15:19;27.43;21.54
51878;SHT31;37911;51.526;11.536;2023-06-04T10:18:23;27.40;21.89
51878;SHT31;37911;51.526;11.536;2023-06-04T10:21:28;27.53;21.92
51878;SHT31;37911;51.526;11.536;2023-06-04T10:24:36;27.49;21.54
51878;SHT31;37911;51.526;11.536;2023-06-04T10:27:43;27.05;21.19
51878;SHT31;37911;51.526;11.536;2023-06-04T10:30:47;27.17;21.97
51878;SHT31;37911;51.526;11.536;2023-06-04T10:33:54;27.74;22.30
51878;SHT31;37911;51.526;11.536;2023-06-04T10:36:58;27.56;21.20
51878;SHT31;37911;51.526;11.536;2023-06-04T10:40:04;27.20;21.39
51878;SHT31;37911;51.526;11.536;2023-06-04T10:43:14;27.42;21.79
51878;SHT31;37911;51.526;11.536;2023-06-04T10:46:20;27.87;22.07
51878;SHT31;37911;51.526;11.536;2023-06-04T10:49:28;27.97;22.03
51878;SHT31;37911;51.526;11.536;2023-06-04T10:52:32;28.17;21.67
51878;SHT31;37911;51.526;11.536;2023-06-04T10:55:43;28.27;21.55
51878;SHT31;37911;51.526;11.536;2023-06-04T10:58:51;28.21;21.03
51878;SHT31;37911;51.526;11.536;2023-06-04T11:02:04;27.26;22.14
51878;SHT31;37911;51.526;11.536;2023-06-04T11:05:09;26.89;22.56
51878;SHT31;37911;51.526;11.536;2023-06-04T11:08:13;26.76;23.08
51878;SHT31;37911;51.526;11.536;2023-06-04T11:11:17;27.26;22.82
51878;SHT31;37911;51.526;11.536;2023-06-04T11:14:24;27.50;23.08
51878;SHT31;37911;51.526;11.536;2023-06-04T11:17:28;26.79;22.87
51878;SHT31;37911;51.526;11.536;2023-06-04T11:20:32;26.71;22.86
51878;SHT31;37911;51.526;11.536;2023-06-04T11:23:36;26.96;23.00
51878;SHT31;37911;51.526;11.536;2023-06-04T11:26:40;26.62;23.61
51878;SHT31;37911;51.526;11.536;2023-06-04T11:29:49;26.89;23.13
51878;SHT31;37911;51.526;11.536;2023-06-04T11:33:00;27.63;22.52
51878;SHT31;37911;51.526;11.536;2023-06-04T11:36:04;26.82;22.80
51878;SHT31;37911;51.526;11.536;2023-06-04T11:39:08;27.06;21.95
51878;SHT31;37911;51.526;11.536;2023-06-04T11:42:14;26.30;22.16
51878;SHT31;37911;51.526;11.536;2023-06-04T11:45:22;26.04;22.13
51878;SHT31;37911;51.526;11.536;2023-06-04T11:48:26;25.69;22.24
51878;SHT31;37911;51.526;11.536;2023-06-04T11:51:30;25.98;23.06
51878;SHT31;37911;51.526;11.536;2023-06-04T11:54:34;26.35;21.85
51878;SHT31;37911;51.526;11.536;2023-06-04T11:57:40;26.85;22.08
51878;SHT31;37911;51.526;11.536;2023-06-04T12:00:47;26.72;22.88
51878;SHT31;37911;51.526;11.536;2023-06-04T12:03:50;26.93;22.84
51878;SHT31;37911;51.526;11.536;2023-06-04T12:06:55;26.47;23.65
51878;SHT31;37911;51.526;11.536;2023-06-04T12:10:05;26.21;23.22
51878;SHT31;37911;51.526;11.536;2023-06-04T12:13:10;26.61;23.01
51878;SHT31;37911;51.526;11.536;2023-06-04T12:16:16;26.91;23.19
51878;SHT31;37911;51.526;11.536;2023-06-04T12:19:20;26.11;22.46
51878;SHT31;37911;51.526;11.536;2023-06-04T12:22:24;27.10;23.90
51878;SHT31;37911;51.526;11.536;2023-06-04T12:25:29;26.93;22.97
51878;SHT31;37911;51.526;11.536;2023-06-04T12:28:33;26.20;21.72
51878;SHT31;37911;51.526;11.536;2023-06-04T12:31:40;26.51;22.69
51878;SHT31;37911;51.526;11.536;2023-06-04T12:34:44;26.34;23.01
51878;SHT31;37911;51.526;11.536;2023-06-04T12:37:48;26.44;22.10
51878;SHT31;37911;51.526;11.536;2023-06-04T12:40:52;26.88;21.34
51878;SHT31;37911;51.526;11.536;2023-06-04T12:43:56;26.20;21.07
51878;SHT31;37911;51.526;11.536;2023-06-04T12:47:02;26.63;21.29
51878;SHT31;37911;51.526;11.536;2023-06-04T12:50:06;26.83;21.58
51878;SHT31;37911;51.526;11.536;2023-06-04T12:53:10;26.22;22.03
51878;SHT31;37911;51.526;11.536;2023-06-04T12:56:14;26.08;21.46
51878;SHT31;37911;51.526;11.536;2023-06-04T12:59:18;26.05;20.31
51878;SHT31;37911;51.526;11.536;2023-06-04T13:02:25;26.05;20.44
51878;SHT31;37911;51.526;11.536;2023-06-04T13:05:28;26.04;20.58
51878;SHT31;37911;51.526;11.536;2023-06-04T13:08:32;26.02;20.29
51878;SHT31;37911;51.526;11.536;2023-06-04T13:11:37;26.14;21.06
51878;SHT31;37911;51.526;11.536;2023-06-04T13:14:41;26.04;20.33
51878;SHT31;37911;51.526;11.536;2023-06-04T13:17:48;26.01;20.86
51878;SHT31;37911;51.526;11.536;2023-06-04T13:20:51;25.96;20.37
51878;SHT31;37911;51.526;11.536;2023-06-04T13:23:55;26.16;21.12
51878;SHT31;37911;51.526;11.536;2023-06-04T13:26:59;26.35;20.64
51878;SHT31;37911;51.526;11.536;2023-06-04T13:30:04;26.49;21.09
51878;SHT31;37911;51.526;11.536;2023-06-04T13:33:11;26.58;20.92
51878;SHT31;37911;51.526;11.536;2023-06-04T13:36:15;26.22;20.80
51878;SHT31;37911;51.526;11.536;2023-06-04T13:39:19;25.83;21.62
51878;SHT31;37911;51.526;11.536;2023-06-04T13:42:23;26.04;21.49
51878;SHT31;37911;51.526;11.536;2023-06-04T13:45:26;25.69;21.44
51878;SHT31;37911;51.526;11.536;2023-06-04T13:48:33;25.78;21.78
51878;SHT31;37911;51.526;11.536;2023-06-04T13:51:37;26.20;21.62
51878;SHT31;37911;51.526;11.536;2023-06-04T13:54:40;25.70;22.11
51878;SHT31;37911;51.526;11.536;2023-06-04T13:57:47;25.46;22.49
51878;SHT31;37911;51.526;11.536;2023-06-04T14:00:51;25.67;21.63
51878;SHT31;37911;51.526;11.536;2023-06-04T14:03:57;26.32;21.16
51878;SHT31;37911;51.526;11.536;2023-06-04T14:07:01;26.47;20.68
51878;SHT31;37911;51.526;11.536;2023-06-04T14:10:07;26.25;21.60
51878;SHT31;37911;51.526;11.536;2023-06-04T14:13:10;25.97;21.38
51878;SHT31;37911;51.526;11.536;2023-06-04T14:16:16;26.04;21.59
51878;SHT31;37911;51.526;11.536;2023-06-04T14:19:22;25.80;21.37
51878;SHT31;37911;51.526;11.536;2023-06-04T14:22:26;25.84;21.83
51878;SHT31;37911;51.526;11.536;2023-06-04T14:25:30;25.59;21.98
51878;SHT31;37911;51.526;11.536;2023-06-04T14:28:37;25.84;22.31
51878;SHT31;37911;51.526;11.536;2023-06-04T14:31:40;25.46;22.02
51878;SHT31;37911;51.526;11.536;2023-06-04T14:34:48;25.66;22.04
51878;SHT31;37911;51.526;11.536;2023-06-04T14:37:52;25.67;22.15
51878;SHT31;37911;51.526;11.536;2023-06-04T14:40:55;25.49;21.96
51878;SHT31;37911;51.526;11.536;2023-06-04T14:43:59;25.47;22.73
51878;SHT31;37911;51.526;11.536;2023-06-04T14:47:04;25.67;22.57
51878;SHT31;37911;51.526;11.536;2023-06-04T14:50:12;25.67;22.16
51878;SHT31;37911;51.526;11.536;2023-06-04T14:53:17;25.43;22.26
51878;SHT31;37911;51.526;11.536;2023-06-04T14:56:21;25.29;22.69
51878;SHT31;37911;51.526;11.536;2023-06-04T14:59:26;25.39;22.69
51878;SHT31;37911;51.526;11.536;2023-06-04T15:02:29;25.11;23.19
51878;SHT31;37911;51.526;11.536;2023-06-04T15:05:36;25.15;22.95
51878;SHT31;37911;51.526;11.536;2023-06-04T15:08:39;25.05;22.81
51878;SHT31;37911;51.526;11.536;2023-06-04T15:11:43;24.92;22.81
51878;SHT31;37911;51.526;11.536;2023-06-04T15:14:46;24.82;23.42
51878;SHT31;37911;51.526;11.536;2023-06-04T15:17:51;24.89;23.97
51878;SHT31;37911;51.526;11.536;2023-06-04T15:20:57;24.96;23.64
51878;SHT31;37911;51.526;11.536;2023-06-04T15:24:01;24.75;23.95
51878;SHT31;37911;51.526;11.536;2023-06-04T15:27:04;24.44;23.17
51878;SHT31;37911;51.526;11.536;2023-06-04T15:30:08;24.64;23.55
51878;SHT31;37911;51.526;11.536;2023-06-04T15:33:12;24.52;23.67
51878;SHT31;37911;51.526;11.536;2023-06-04T15:36:19;24.51;23.15
51878;SHT31;37911;51.526;11.536;2023-06-04T15:39:23;24.57;22.57
51878;SHT31;37911;51.526;11.536;2023-06-04T15:42:27;24.54;22.96
51878;SHT31;37911;51.526;11.536;2023-06-04T15:45:30;24.61;23.30
51878;SHT31;37911;51.526;11.536;2023-06-04T15:48:34;24.37;23.28
51878;SHT31;37911;51.526;11.536;2023-06-04T15:51:40;24.44;23.33
51878;SHT31;37911;51.526;11.536;2023-06-04T15:54:44;24.60;23.02
51878;SHT31;37911;51.526;11.536;2023-06-04T15:57:48;24.47;23.89
51878;SHT31;37911;51.526;11.536;2023-06-04T16:00:52;24.31;24.46
51878;SHT31;37911;51.526;11.536;2023-06-04T16:03:55;24.32;24.65
51878;SHT31;37911;51.526;11.536;2023-06-04T16:07:02;24.22;24.91
51878;SHT31;37911;51.526;11.536;2023-06-04T16:10:06;23.99;24.70
51878;SHT31;37911;51.526;11.536;2023-06-04T16:13:10;23.90;24.98
51878;SHT31;37911;51.526;11.536;2023-06-04T16:16:14;24.17;25.84
51878;SHT31;37911;51.526;11.536;2023-06-04T16:19:17;24.03;25.09
51878;SHT31;37911;51.526;11.536;2023-06-04T16:22:24;24.09;25.23
51878;SHT31;37911;51.526;11.536;2023-06-04T16:25:27;24.01;25.48
51878;SHT31;37911;51.526;11.536;2023-06-04T16:28:31;24.00;25.92
51878;SHT31;37911;51.526;11.536;2023-06-04T16:31:35;24.00;25.32
51878;SHT31;37911;51.526;11.536;2023-06-04T16:34:38;24.00;25.36
51878;SHT31;37911;51.526;11.536;2023-06-04T16:37:44;23.79;25.46
51878;SHT31;37911;51.526;11.536;2023-06-04T16:40:48;23.77;26.11
51878;SHT31;37911;51.526;11.536;2023-06-04T16:43:52;23.49;25.77
51878;SHT31;37911;51.526;11.536;2023-06-04T16:46:56;23.46;26.79
51878;SHT31;37911;51.526;11.536;2023-06-04T16:50:00;23.39;26.95
51878;SHT31;37911;51.526;11.536;2023-06-04T16:53:08;23.42;27.37
51878;SHT31;37911;51.526;11.536;2023-06-04T16:56:11;23.28;27.23
51878;SHT31;37911;51.526;11.536;2023-06-04T16:59:15;23.23;26.87
51878;SHT31;37911;51.526;11.536;2023-06-04T17:02:19;23.14;27.06
51878;SHT31;37911;51.526;11.536;2023-06-04T17:05:22;23.08;26.73
51878;SHT31;37911;51.526;11.536;2023-06-04T17:08:29;23.05;27.14
51878;SHT31;37911;51.526;11.536;2023-06-04T17:11:32;22.94;27.36
51878;SHT31;37911;51.526;11.536;2023-06-04T17:14:37;22.87;26.72
51878;SHT31;37911;51.526;11.536;2023-06-04T17:17:41;22.71;26.30
51878;SHT31;37911;51.526;11.536;2023-06-04T17:20:45;22.71;27.25
51878;SHT31;37911;51.526;11.536;2023-06-04T17:23:51;22.74;26.50
51878;SHT31;37911;51.526;11.536;2023-06-04T17:26:55;22.78;26.92
51878;SHT31;37911;51.526;11.536;2023-06-04T17:29:59;22.63;26.53
51878;SHT31;37911;51.526;11.536;2023-06-04T17:33:03;22.51;26.83
51878;SHT31;37911;51.526;11.536;2023-06-04T17:36:07;22.43;26.93
51878;SHT31;37911;51.526;11.536;2023-06-04T17:39:14;22.43;27.46
51878;SHT31;37911;51.526;11.536;2023-06-04T17:42:19;22.25;27.62
51878;SHT31;37911;51.526;11.536;2023-06-04T17:45:25;22.24;28.07
51878;SHT31;37911;51.526;11.536;2023-06-04T17:48:29;22.20;28.50
51878;SHT31;37911;51.526;11.536;2023-06-04T17:51:33;22.21;28.54
51878;SHT31;37911;51.526;11.536;2023-06-04T17:54:39;22.04;29.10
51878;SHT31;37911;51.526;11.536;2023-06-04T17:57:43;21.96;29.57
51878;SHT31;37911;51.526;11.536;2023-06-04T18:00:46;21.86;29.64
51878;SHT31;37911;51.526;11.536;2023-06-04T18:03:50;21.79;29.72
51878;SHT31;37911;51.526;11.536;2023-06-04T18:06:54;21.72;29.89
51878;SHT31;37911;51.526;11.536;2023-06-04T18:10:00;21.66;30.63
51878;SHT31;37911;51.526;11.536;2023-06-04T18:13:04;21.63;30.88
51878;SHT31;37911;51.526;11.536;2023-06-04T18:16:07;21.53;31.00
51878;SHT31;37911;51.526;11.536;2023-06-04T18:19:15;21.53;32.08
51878;SHT31;37911;51.526;11.536;2023-06-04T18:22:19;21.48;32.85
51878;SHT31;37911;51.526;11.536;2023-06-04T18:25:25;21.38;32.86
51878;SHT31;37911;51.526;11.536;2023-06-04T18:28:29;21.34;33.70
51878;SHT31;37911;51.526;11.536;2023-06-04T18:31:33;21.29;33.94
51878;SHT31;37911;51.526;11.536;2023-06-04T18:34:37;21.31;34.07
51878;SHT31;37911;51.526;11.536;2023-06-04T18:37:41;21.18;34.52
51878;SHT31;37911;51.526;11.536;2023-06-04T18:40:48;21.08;35.76
51878;SHT31;37911;51.526;11.536;2023-06-04T18:43:54;20.91;36.03
51878;SHT31;37911;51.526;11.536;2023-06-04T18:46:58;20.88;34.65
51878;SHT31;37911;51.526;11.536;2023-06-04T18:50:03;20.85;33.89
51878;SHT31;37911;51.526;11.536;2023-06-04T18:53:10;20.83;34.10
51878;SHT31;37911;51.526;11.536;2023-06-04T18:56:20;20.78;34.69
51878;SHT31;37911;51.526;11.536;2023-06-04T18:59:24;20.61;36.27
51878;SHT31;37911;51.526;11.536;2023-06-04T19:02:28;20.43;36.99
51878;SHT31;37911;51.526;11.536;2023-06-04T19:05:32;20.33;37.90
51878;SHT31;37911;51.526;11.536;2023-06-04T19:08:35;20.08;39.75
51878;SHT31;37911;51.526;11.536;2023-06-04T19:11:41;19.89;40.21
51878;SHT31;37911;51.526;11.536;2023-06-04T19:14:47;19.89;40.84
51878;SHT31;37911;51.526;11.536;2023-06-04T19:17:50;19.59;41.77